sensor_id;sensor_type;location;lat;lon;timestamp;P1;durP1;ratioP1;P2;durP2;ratioP2
14817;SDS011;7500;57.698;11.986;2024-01-10T00:01:10;9.30;;;6.43;;
14817;SDS011;7500;57.698;11.986;2024-01-10T00:03:36;8.20;;;5.83;;
14817;SDS011;7500;57.698;11.986;2024-01-10T00:06:03;7.17;;;5.80;;
14817;SDS011;7500;57.698;11.986;2024-01-10T00:08:30;8.37;;;5.70;;
14817;SDS011;7500;57.698;11.986;2024-01-10T00:10:56;7.67;;;6.20;;
14817;SDS011;7500;57.698;11.986;2024-01-10T00:13:24;7.87;;;6.10;;
14817;SDS011;7500;57.698;11.986;2024-01-10T00:15:52;8.30;;;6.30;;
14817;SDS011;7500;57.698;11.986;2024-01-10T00:18:20;7.53;;;6.17;;
14817;SDS011;7500;57.698;11.986;2024-01-10T00:20:47;8.90;;;5.90;;
14817;SDS011;7500;57.698;11.986;2024-01-10T00:23:14;10.80;;;6.20;;
14817;SDS011;7500;57.698;11.986;2024-01-10T00:25:40;6.47;;;5.77;;
14817;SDS011;7500;57.698;11.986;2024-01-10T00:28:07;8.37;;;6.13;;
14817;SDS011;7500;57.698;11.986;2024-01-10T00:30:35;7.97;;;6.40;;
14817;SDS011;7500;57.698;11.986;2024-01-10T00:33:01;7.57;;;5.90;;
14817;SDS011;7500;57.698;11.986;2024-01-10T00:35:28;7.73;;;5.27;;
14817;SDS011;7500;57.698;11.986;2024-01-10T00:37:54;8.40;;;5.80;;
14817;SDS011;7500;57.698;11.986;2024-01-10T00:40:21;8.83;;;6.20;;
14817;SDS011;7500;57.698;11.986;2024-01-10T00:42:47;8.87;;;6.13;;
14817;SDS011;7500;57.698;11.986;2024-01-10T00:45:14;7.13;;;6.10;;
14817;SDS011;7500;57.698;11.986;2024-01-10T00:47:42;6.50;;;5.40;;
14817;SDS011;7500;57.698;11.986;2024-01-10T00:50:08;6.17;;;5.07;;
14817;SDS011;7500;57.698;11.986;2024-01-10T00:52:35;5.90;;;5.30;;
14817;SDS011;7500;57.698;11.986;2024-01-10T00:55:02;6.20;;;5.23;;
14817;SDS011;7500;57.698;11.986;2024-01-10T00:57:28;7.53;;;5.13;;
14817;SDS011;7500;57.698;11.986;2024-01-10T00:59:55;6.60;;;5.23;;
14817;SDS011;7500;57.698;11.986;2024-01-10T01:02:21;8.53;;;5.50;;
14817;SDS011;7500;57.698;11.986;2024-01-10T01:04:49;8.37;;;6.37;;
14817;SDS011;7500;57.698;11.986;2024-01-10T01:07:16;7.47;;;5.93;;
14817;SDS011;7500;57.698;11.986;2024-01-10T01:09:42;6.93;;;5.60;;
14817;SDS011;7500;57.698;11.986;2024-01-10T01:12:09;9.30;;;5.63;;
14817;SDS011;7500;57.698;11.986;2024-01-10T01:14:35;7.40;;;6.13;;
14817;SDS011;7500;57.698;11.986;2024-01-10T01:17:02;8.27;;;5.90;;
14817;SDS011;7500;57.698;11.986;2024-01-10T01:19:29;7.93;;;5.83;;
14817;SDS011;7500;57.698;11.986;2024-01-10T01:21:56;6.57;;;5.33;;
14817;SDS011;7500;57.698;11.986;2024-01-10T01:24:23;9.10;;;5.87;;
14817;SDS011;7500;57.698;11.986;2024-01-10T01:26:49;8.47;;;5.90;;
14817;SDS011;7500;57.698;11.986;2024-01-10T01:29:16;7.27;;;6.53;;
14817;SDS011;7500;57.698;11.986;2024-01-10T01:31:43;8.93;;;6.20;;
14817;SDS011;7500;57.698;11.986;2024-01-10T01:34:09;5.93;;;5.27;;
14817;SDS011;7500;57.698;11.986;2024-01-10T01:36:36;8.70;;;5.83;;
14817;SDS011;7500;57.698;11.986;2024-01-10T01:39:04;9.40;;;5.77;;
14817;SDS011;7500;57.698;11.986;2024-01-10T01:41:31;9.20;;;6.63;;
14817;SDS011;7500;57.698;11.986;2024-01-10T01:43:57;6.27;;;5.53;;
14817;SDS011;7500;57.698;11.986;2024-01-10T01:46:24;8.50;;;6.33;;
14817;SDS011;7500;57.698;11.986;2024-01-10T01:48:50;7.90;;;6.27;;
14817;SDS011;7500;57.698;11.986;2024-01-10T01:51:24;8.37;;;6.10;;
14817;SDS011;7500;57.698;11.986;2024-01-10T01:53:51;8.40;;;6.23;;
14817;SDS011;7500;57.698;11.986;2024-01-10T01:56:20;7.87;;;6.70;;
14817;SDS011;7500;57.698;11.986;2024-01-10T01:58:46;9.13;;;6.93;;
14817;SDS011;7500;57.698;11.986;2024-01-10T02:01:16;8.20;;;6.30;;
14817;SDS011;7500;57.698;11.986;2024-01-10T02:03:43;9.60;;;6.37;;
14817;SDS011;7500;57.698;11.986;2024-01-10T02:06:17;9.57;;;6.90;;
14817;SDS011;7500;57.698;11.986;2024-01-10T02:08:44;8.20;;;6.63;;
14817;SDS011;7500;57.698;11.986;2024-01-10T02:11:26;9.80;;;6.63;;
14817;SDS011;7500;57.698;11.986;2024-01-10T02:13:53;10.07;;;7.40;;
14817;SDS011;7500;57.698;11.986;2024-01-10T02:16:20;9.17;;;7.13;;
14817;SDS011;7500;57.698;11.986;2024-01-10T02:18:48;8.87;;;7.13;;
14817;SDS011;7500;57.698;11.986;2024-01-10T02:21:14;10.30;;;7.63;;
14817;SDS011;7500;57.698;11.986;2024-01-10T02:23:41;9.53;;;7.77;;
14817;SDS011;7500;57.698;11.986;2024-01-10T02:26:09;11.73;;;7.33;;
14817;SDS011;7500;57.698;11.986;2024-01-10T02:28:35;10.80;;;7.00;;
14817;SDS011;7500;57.698;11.986;2024-01-10T02:31:02;9.40;;;7.17;;
14817;SDS011;7500;57.698;11.986;2024-01-10T02:33:28;10.10;;;7.43;;
14817;SDS011;7500;57.698;11.986;2024-01-10T02:35:55;11.27;;;7.63;;
14817;SDS011;7500;57.698;11.986;2024-01-10T02:38:21;9.20;;;7.10;;
14817;SDS011;7500;57.698;11.986;2024-01-10T02:40:49;10.23;;;6.63;;
14817;SDS011;7500;57.698;11.986;2024-01-10T02:43:16;7.87;;;6.70;;
14817;SDS011;7500;57.698;11.986;2024-01-10T02:45:43;10.23;;;7.07;;
14817;SDS011;7500;57.698;11.986;2024-01-10T02:48:10;8.33;;;6.37;;
14817;SDS011;7500;57.698;11.986;2024-01-10T02:50:36;8.43;;;6.87;;
14817;SDS011;7500;57.698;11.986;2024-01-10T02:53:04;10.37;;;7.40;;
14817;SDS011;7500;57.698;11.986;2024-01-10T02:55:30;9.03;;;6.60;;
14817;SDS011;7500;57.698;11.986;2024-01-10T02:57:57;9.10;;;6.87;;
14817;SDS011;7500;57.698;11.986;2024-01-10T03:00:25;9.57;;;6.60;;
14817;SDS011;7500;57.698;11.986;2024-01-10T03:02:51;9.27;;;6.70;;
14817;SDS011;7500;57.698;11.986;2024-01-10T03:05:18;11.20;;;7.20;;
14817;SDS011;7500;57.698;11.986;2024-01-10T03:07:44;9.43;;;7.28;;
14817;SDS011;7500;57.698;11.986;2024-01-10T03:10:11;12.17;;;7.30;;
14817;SDS011;7500;57.698;11.986;2024-01-10T03:12:37;10.85;;;8.63;;
14817;SDS011;7500;57.698;11.986;2024-01-10T03:15:04;9.50;;;7.53;;
14817;SDS011;7500;57.698;11.986;2024-01-10T03:17:33;13.97;;;9.37;;
14817;SDS011;7500;57.698;11.986;2024-01-10T03:20:01;12.17;;;9.17;;
14817;SDS011;7500;57.698;11.986;2024-01-10T03:22:27;13.57;;;8.97;;
14817;SDS011;7500;57.698;11.986;2024-01-10T03:24:54;13.40;;;9.67;;
14817;SDS011;7500;57.698;11.986;2024-01-10T03:27:20;12.27;;;9.43;;
14817;SDS011;7500;57.698;11.986;2024-01-10T03:29:47;12.77;;;9.83;;
14817;SDS011;7500;57.698;11.986;2024-01-10T03:32:13;12.90;;;9.87;;
14817;SDS011;7500;57.698;11.986;2024-01-10T03:34:42;11.13;;;8.83;;
14817;SDS011;7500;57.698;11.986;2024-01-10T03:37:08;16.03;;;9.80;;
14817;SDS011;7500;57.698;11.986;2024-01-10T03:39:35;14.13;;;10.33;;
14817;SDS011;7500;57.698;11.986;2024-01-10T03:42:01;14.13;;;9.60;;
14817;SDS011;7500;57.698;11.986;2024-01-10T03:44:28;13.63;;;9.53;;
14817;SDS011;7500;57.698;11.986;2024-01-10T03:46:54;15.40;;;10.33;;
14817;SDS011;7500;57.698;11.986;2024-01-10T03:49:21;17.53;;;11.27;;
14817;SDS011;7500;57.698;11.986;2024-01-10T03:51:49;16.03;;;10.57;;
14817;SDS011;7500;57.698;11.986;2024-01-10T03:54:16;19.00;;;12.03;;
14817;SDS011;7500;57.698;11.986;2024-01-10T03:56:42;16.10;;;9.97;;
14817;SDS011;7500;57.698;11.986;2024-01-10T03:59:09;19.07;;;11.27;;
14817;SDS011;7500;57.698;11.986;2024-01-10T04:01:35;18.50;;;11.43;;
14817;SDS011;7500;57.698;11.986;2024-01-10T04:04:04;21.20;;;11.60;;
14817;SDS011;7500;57.698;11.986;2024-01-10T04:06:30;17.77;;;10.40;;
14817;SDS011;7500;57.698;11.986;2024-01-10T04:08:58;16.50;;;10.00;;
14817;SDS011;7500;57.698;11.986;2024-01-10T04:11:25;12.43;;;7.63;;
14817;SDS011;7500;57.698;11.986;2024-01-10T04:13:51;12.83;;;7.00;;
14817;SDS011;7500;57.698;11.986;2024-01-10T04:16:18;11.23;;;6.30;;
14817;SDS011;7500;57.698;11.986;2024-01-10T04:18:44;7.13;;;5.10;;
14817;SDS011;7500;57.698;11.986;2024-01-10T04:21:11;8.03;;;5.47;;
14817;SDS011;7500;57.698;11.986;2024-01-10T04:23:38;7.33;;;5.33;;
14817;SDS011;7500;57.698;11.986;2024-01-10T04:26:06;9.20;;;5.57;;
14817;SDS011;7500;57.698;11.986;2024-01-10T04:28:32;8.10;;;5.23;;
14817;SDS011;7500;57.698;11.986;2024-01-10T04:30:59;8.03;;;5.10;;
14817;SDS011;7500;57.698;11.986;2024-01-10T04:33:25;7.93;;;4.80;;
14817;SDS011;7500;57.698;11.986;2024-01-10T04:35:52;9.40;;;5.53;;
14817;SDS011;7500;57.698;11.986;2024-01-10T04:38:18;7.97;;;5.00;;
14817;SDS011;7500;57.698;11.986;2024-01-10T04:40:45;8.13;;;4.67;;
14817;SDS011;7500;57.698;11.986;2024-01-10T04:43:13;7.63;;;4.13;;
14817;SDS011;7500;57.698;11.986;2024-01-10T04:45:39;5.60;;;3.73;;
14817;SDS011;7500;57.698;11.986;2024-01-10T04:48:06;7.27;;;3.63;;
14817;SDS011;7500;57.698;11.986;2024-01-10T04:50:34;6.77;;;4.53;;
14817;SDS011;7500;57.698;11.986;2024-01-10T04:53:00;6.77;;;4.23;;
14817;SDS011;7500;57.698;11.986;2024-01-10T04:55:27;8.03;;;4.50;;
14817;SDS011;7500;57.698;11.986;2024-01-10T04:57:53;5.80;;;4.03;;
14817;SDS011;7500;57.698;11.986;2024-01-10T05:00:21;6.93;;;4.30;;
14817;SDS011;7500;57.698;11.986;2024-01-10T05:02:48;7.07;;;4.30;;
14817;SDS011;7500;57.698;11.986;2024-01-10T05:05:14;11.67;;;5.10;;
14817;SDS011;7500;57.698;11.986;2024-01-10T05:07:41;69.87;;;6.87;;
14817;SDS011;7500;57.698;11.986;2024-01-10T05:10:08;74.20;;;6.20;;
14817;SDS011;7500;57.698;11.986;2024-01-10T05:12:34;74.93;;;6.60;;
14817;SDS011;7500;57.698;11.986;2024-01-10T05:15:01;127.63;;;8.00;;
14817;SDS011;7500;57.698;11.986;2024-01-10T05:17:29;184.17;;;8.23;;
14817;SDS011;7500;57.698;11.986;2024-01-10T05:19:56;138.90;;;8.27;;
14817;SDS011;7500;57.698;11.986;2024-01-10T05:22:22;130.47;;;8.13;;
14817;SDS011;7500;57.698;11.986;2024-01-10T05:24:49;73.57;;;8.47;;
14817;SDS011;7500;57.698;11.986;2024-01-10T05:27:15;122.73;;;7.73;;
14817;SDS011;7500;57.698;11.986;2024-01-10T05:29:42;129.07;;;8.03;;
14817;SDS011;7500;57.698;11.986;2024-01-10T05:32:08;65.00;;;6.43;;
14817;SDS011;7500;57.698;11.986;2024-01-10T05:34:43;82.83;;;7.40;;
14817;SDS011;7500;57.698;11.986;2024-01-10T05:37:10;112.83;;;7.50;;
14817;SDS011;7500;57.698;11.986;2024-01-10T05:39:37;147.00;;;8.87;;
14817;SDS011;7500;57.698;11.986;2024-01-10T05:42:03;153.53;;;8.63;;
14817;SDS011;7500;57.698;11.986;2024-01-10T05:44:30;125.37;;;8.20;;
14817;SDS011;7500;57.698;11.986;2024-01-10T05:46:56;104.73;;;8.57;;
14817;SDS011;7500;57.698;11.986;2024-01-10T05:49:24;139.03;;;9.30;;
14817;SDS011;7500;57.698;11.986;2024-01-10T05:51:52;113.70;;;8.90;;
14817;SDS011;7500;57.698;11.986;2024-01-10T05:54:19;160.13;;;8.77;;
14817;SDS011;7500;57.698;11.986;2024-01-10T05:56:45;151.43;;;9.43;;
14817;SDS011;7500;57.698;11.986;2024-01-10T05:59:12;170.53;;;9.70;;
14817;SDS011;7500;57.698;11.986;2024-01-10T06:01:41;177.47;;;9.47;;
14817;SDS011;7500;57.698;11.986;2024-01-10T06:04:07;149.40;;;9.70;;
14817;SDS011;7500;57.698;11.986;2024-01-10T06:06:34;170.13;;;9.47;;
14817;SDS011;7500;57.698;11.986;2024-01-10T06:09:02;137.37;;;9.93;;
14817;SDS011;7500;57.698;11.986;2024-01-10T06:11:28;161.20;;;10.67;;
14817;SDS011;7500;57.698;11.986;2024-01-10T06:13:55;262.97;;;12.13;;
14817;SDS011;7500;57.698;11.986;2024-01-10T06:16:22;297.83;;;13.17;;
14817;SDS011;7500;57.698;11.986;2024-01-10T06:18:49;206.13;;;11.57;;
14817;SDS011;7500;57.698;11.986;2024-01-10T06:21:16;195.73;;;12.60;;
14817;SDS011;7500;57.698;11.986;2024-01-10T06:23:42;118.47;;;10.57;;
14817;SDS011;7500;57.698;11.986;2024-01-10T06:26:10;119.67;;;10.73;;
14817;SDS011;7500;57.698;11.986;2024-01-10T06:28:37;173.13;;;11.00;;
14817;SDS011;7500;57.698;11.986;2024-01-10T06:31:04;149.43;;;11.23;;
14817;SDS011;7500;57.698;11.986;2024-01-10T06:33:30;127.97;;;11.37;;
14817;SDS011;7500;57.698;11.986;2024-01-10T06:35:57;147.33;;;10.27;;
14817;SDS011;7500;57.698;11.986;2024-01-10T06:38:23;131.77;;;10.83;;
14817;SDS011;7500;57.698;11.986;2024-01-10T06:40:50;110.53;;;10.77;;
14817;SDS011;7500;57.698;11.986;2024-01-10T06:43:18;135.37;;;10.77;;
14817;SDS011;7500;57.698;11.986;2024-01-10T06:45:45;153.37;;;11.57;;
14817;SDS011;7500;57.698;11.986;2024-01-10T06:48:11;117.63;;;10.53;;
14817;SDS011;7500;57.698;11.986;2024-01-10T06:50:38;148.40;;;13.27;;
14817;SDS011;7500;57.698;11.986;2024-01-10T06:53:04;177.87;;;13.50;;
14817;SDS011;7500;57.698;11.986;2024-01-10T06:55:31;227.73;;;12.10;;
14817;SDS011;7500;57.698;11.986;2024-01-10T06:57:57;179.33;;;12.37;;
14817;SDS011;7500;57.698;11.986;2024-01-10T07:00:25;187.83;;;13.43;;
14817;SDS011;7500;57.698;11.986;2024-01-10T07:02:52;133.80;;;11.67;;
14817;SDS011;7500;57.698;11.986;2024-01-10T07:05:19;153.90;;;13.30;;
14817;SDS011;7500;57.698;11.986;2024-01-10T07:07:46;157.03;;;12.67;;
14817;SDS011;7500;57.698;11.986;2024-01-10T07:10:12;157.07;;;13.20;;
14817;SDS011;7500;57.698;11.986;2024-01-10T07:12:39;131.60;;;11.67;;
14817;SDS011;7500;57.698;11.986;2024-01-10T07:15:06;117.63;;;11.73;;
14817;SDS011;7500;57.698;11.986;2024-01-10T07:17:34;150.77;;;11.93;;
14817;SDS011;7500;57.698;11.986;2024-01-10T07:20:01;114.77;;;11.87;;
14817;SDS011;7500;57.698;11.986;2024-01-10T07:22:30;256.40;;;14.60;;
14817;SDS011;7500;57.698;11.986;2024-01-10T07:24:57;115.90;;;11.80;;
14817;SDS011;7500;57.698;11.986;2024-01-10T07:27:23;213.43;;;14.13;;
14817;SDS011;7500;57.698;11.986;2024-01-10T07:29:50;140.90;;;12.70;;
14817;SDS011;7500;57.698;11.986;2024-01-10T07:32:17;185.13;;;13.57;;
14817;SDS011;7500;57.698;11.986;2024-01-10T07:34:46;202.97;;;15.83;;
14817;SDS011;7500;57.698;11.986;2024-01-10T07:37:13;282.03;;;16.03;;
14817;SDS011;7500;57.698;11.986;2024-01-10T07:39:41;144.70;;;13.03;;
14817;SDS011;7500;57.698;11.986;2024-01-10T07:42:08;125.90;;;12.63;;
14817;SDS011;7500;57.698;11.986;2024-01-10T07:44:33;163.23;;;13.77;;
14817;SDS011;7500;57.698;11.986;2024-01-10T07:47:00;192.43;;;13.97;;
14817;SDS011;7500;57.698;11.986;2024-01-10T07:49:27;116.67;;;13.20;;
14817;SDS011;7500;57.698;11.986;2024-01-10T07:51:56;209.37;;;14.37;;
14817;SDS011;7500;57.698;11.986;2024-01-10T07:54:23;98.67;;;12.23;;
14817;SDS011;7500;57.698;11.986;2024-01-10T07:56:49;109.40;;;12.80;;
14817;SDS011;7500;57.698;11.986;2024-01-10T07:59:18;154.33;;;14.20;;
14817;SDS011;7500;57.698;11.986;2024-01-10T08:01:53;173.93;;;16.23;;
14817;SDS011;7500;57.698;11.986;2024-01-10T08:04:20;105.37;;;12.53;;
14817;SDS011;7500;57.698;11.986;2024-01-10T08:06:48;126.10;;;12.70;;
14817;SDS011;7500;57.698;11.986;2024-01-10T08:09:16;131.00;;;14.13;;
14817;SDS011;7500;57.698;11.986;2024-01-10T08:11:46;155.87;;;13.20;;
14817;SDS011;7500;57.698;11.986;2024-01-10T08:14:12;125.50;;;13.63;;
14817;SDS011;7500;57.698;11.986;2024-01-10T08:16:39;163.57;;;14.70;;
14817;SDS011;7500;57.698;11.986;2024-01-10T08:19:05;127.27;;;13.23;;
14817;SDS011;7500;57.698;11.986;2024-01-10T08:21:32;131.57;;;13.53;;
14817;SDS011;7500;57.698;11.986;2024-01-10T08:23:59;105.27;;;13.50;;
14817;SDS011;7500;57.698;11.986;2024-01-10T08:26:27;134.70;;;14.73;;
14817;SDS011;7500;57.698;11.986;2024-01-10T08:28:54;95.30;;;12.40;;
14817;SDS011;7500;57.698;11.986;2024-01-10T08:31:21;116.47;;;13.37;;
14817;SDS011;7500;57.698;11.986;2024-01-10T08:33:48;90.30;;;13.70;;
14817;SDS011;7500;57.698;11.986;2024-01-10T08:36:15;116.23;;;13.70;;
14817;SDS011;7500;57.698;11.986;2024-01-10T08:38:42;146.27;;;15.90;;
14817;SDS011;7500;57.698;11.986;2024-01-10T08:41:08;88.17;;;13.97;;
14817;SDS011;7500;57.698;11.986;2024-01-10T08:43:38;106.30;;;13.67;;
14817;SDS011;7500;57.698;11.986;2024-01-10T08:46:04;117.90;;;14.37;;
14817;SDS011;7500;57.698;11.986;2024-01-10T08:48:31;119.80;;;14.60;;
14817;SDS011;7500;57.698;11.986;2024-01-10T08:50:58;80.50;;;13.40;;
14817;SDS011;7500;57.698;11.986;2024-01-10T08:53:24;96.67;;;13.53;;
14817;SDS011;7500;57.698;11.986;2024-01-10T08:55:51;58.40;;;11.80;;
14817;SDS011;7500;57.698;11.986;2024-01-10T08:58:18;52.17;;;10.27;;
14817;SDS011;7500;57.698;11.986;2024-01-10T09:00:46;86.57;;;11.87;;
14817;SDS011;7500;57.698;11.986;2024-01-10T09:03:12;57.17;;;11.20;;
14817;SDS011;7500;57.698;11.986;2024-01-10T09:05:38;62.07;;;11.83;;
14817;SDS011;7500;57.698;11.986;2024-01-10T09:08:05;37.90;;;10.30;;
14817;SDS011;7500;57.698;11.986;2024-01-10T09:10:31;30.07;;;10.33;;
14817;SDS011;7500;57.698;11.986;2024-01-10T09:12:58;31.87;;;9.37;;
14817;SDS011;7500;57.698;11.986;2024-01-10T09:15:25;34.53;;;9.80;;
14817;SDS011;7500;57.698;11.986;2024-01-10T09:17:53;42.23;;;10.20;;
14817;SDS011;7500;57.698;11.986;2024-01-10T09:20:19;42.13;;;10.83;;
14817;SDS011;7500;57.698;11.986;2024-01-10T09:22:46;40.20;;;9.30;;
14817;SDS011;7500;57.698;11.986;2024-01-10T09:25:14;42.23;;;11.17;;
14817;SDS011;7500;57.698;11.986;2024-01-10T09:27:41;66.60;;;11.60;;
14817;SDS011;7500;57.698;11.986;2024-01-10T09:30:09;60.17;;;10.60;;
14817;SDS011;7500;57.698;11.986;2024-01-10T09:32:35;37.20;;;10.70;;
14817;SDS011;7500;57.698;11.986;2024-01-10T09:35:04;68.33;;;11.33;;
14817;SDS011;7500;57.698;11.986;2024-01-10T09:37:30;96.70;;;11.47;;
14817;SDS011;7500;57.698;11.986;2024-01-10T09:39:57;70.37;;;12.00;;
14817;SDS011;7500;57.698;11.986;2024-01-10T09:42:23;77.23;;;11.47;;
14817;SDS011;7500;57.698;11.986;2024-01-10T09:44:50;67.17;;;12.27;;
14817;SDS011;7500;57.698;11.986;2024-01-10T09:47:17;79.20;;;12.07;;
14817;SDS011;7500;57.698;11.986;2024-01-10T09:49:45;74.23;;;11.23;;
14817;SDS011;7500;57.698;11.986;2024-01-10T09:52:18;58.20;;;12.40;;
14817;SDS011;7500;57.698;11.986;2024-01-10T09:54:47;58.40;;;12.33;;
14817;SDS011;7500;57.698;11.986;2024-01-10T09:57:24;69.17;;;11.57;;
14817;SDS011;7500;57.698;11.986;2024-01-10T09:59:50;36.80;;;10.97;;
14817;SDS011;7500;57.698;11.986;2024-01-10T10:02:17;30.13;;;10.53;;
14817;SDS011;7500;57.698;11.986;2024-01-10T10:04:44;35.07;;;11.00;;
14817;SDS011;7500;57.698;11.986;2024-01-10T10:07:16;29.60;;;10.67;;
14817;SDS011;7500;57.698;11.986;2024-01-10T10:09:43;35.53;;;10.40;;
14817;SDS011;7500;57.698;11.986;2024-01-10T10:12:09;40.37;;;10.13;;
14817;SDS011;7500;57.698;11.986;2024-01-10T10:14:36;27.97;;;9.93;;
14817;SDS011;7500;57.698;11.986;2024-01-10T10:17:14;41.67;;;8.97;;
14817;SDS011;7500;57.698;11.986;2024-01-10T10:19:41;35.83;;;9.10;;
14817;SDS011;7500;57.698;11.986;2024-01-10T10:22:09;31.63;;;9.47;;
14817;SDS011;7500;57.698;11.986;2024-01-10T10:24:37;35.70;;;9.87;;
14817;SDS011;7500;57.698;11.986;2024-01-10T10:27:07;27.37;;;9.17;;
14817;SDS011;7500;57.698;11.986;2024-01-10T10:29:35;29.07;;;9.23;;
14817;SDS011;7500;57.698;11.986;2024-01-10T10:32:01;20.97;;;9.97;;
14817;SDS011;7500;57.698;11.986;2024-01-10T10:34:30;25.57;;;9.57;;
14817;SDS011;7500;57.698;11.986;2024-01-10T10:36:56;21.03;;;8.93;;
14817;SDS011;7500;57.698;11.986;2024-01-10T10:39:23;17.17;;;8.33;;
14817;SDS011;7500;57.698;11.986;2024-01-10T10:41:52;21.10;;;9.30;;
14817;SDS011;7500;57.698;11.986;2024-01-10T10:44:35;21.07;;;9.60;;
14817;SDS011;7500;57.698;11.986;2024-01-10T10:47:03;19.33;;;8.67;;
14817;SDS011;7500;57.698;11.986;2024-01-10T10:49:31;16.27;;;8.77;;
14817;SDS011;7500;57.698;11.986;2024-01-10T10:51:58;18.57;;;8.70;;
14817;SDS011;7500;57.698;11.986;2024-01-10T10:54:27;16.03;;;8.40;;
14817;SDS011;7500;57.698;11.986;2024-01-10T10:56:56;20.13;;;9.73;;
14817;SDS011;7500;57.698;11.986;2024-01-10T10:59:24;18.97;;;10.20;;
14817;SDS011;7500;57.698;11.986;2024-01-10T11:01:51;20.83;;;9.57;;
14817;SDS011;7500;57.698;11.986;2024-01-10T11:04:18;18.80;;;9.23;;
14817;SDS011;7500;57.698;11.986;2024-01-10T11:06:45;16.50;;;9.63;;
14817;SDS011;7500;57.698;11.986;2024-01-10T11:09:12;18.90;;;10.43;;
14817;SDS011;7500;57.698;11.986;2024-01-10T11:11:44;20.40;;;9.90;;
14817;SDS011;7500;57.698;11.986;2024-01-10T11:14:21;19.77;;;10.07;;
14817;SDS011;7500;57.698;11.986;2024-01-10T11:17:01;17.33;;;9.83;;
14817;SDS011;7500;57.698;11.986;2024-01-10T11:22:22;17.03;;;9.67;;
14817;SDS011;7500;57.698;11.986;2024-01-10T11:24:52;16.90;;;9.33;;
14817;SDS011;7500;57.698;11.986;2024-01-10T11:27:19;19.80;;;9.93;;
14817;SDS011;7500;57.698;11.986;2024-01-10T11:29:46;17.53;;;10.47;;
14817;SDS011;7500;57.698;11.986;2024-01-10T11:32:14;18.40;;;10.30;;
14817;SDS011;7500;57.698;11.986;2024-01-10T11:34:48;16.33;;;9.10;;
14817;SDS011;7500;57.698;11.986;2024-01-10T11:37:15;18.10;;;9.63;;
14817;SDS011;7500;57.698;11.986;2024-01-10T11:39:41;15.00;;;9.43;;
14817;SDS011;7500;57.698;11.986;2024-01-10T11:42:09;19.87;;;10.73;;
14817;SDS011;7500;57.698;11.986;2024-01-10T11:44:42;17.60;;;9.87;;
14817;SDS011;7500;57.698;11.986;2024-01-10T11:47:14;17.87;;;10.57;;
14817;SDS011;7500;57.698;11.986;2024-01-10T11:49:41;19.80;;;10.93;;
14817;SDS011;7500;57.698;11.986;2024-01-10T11:52:20;19.97;;;11.30;;
14817;SDS011;7500;57.698;11.986;2024-01-10T11:54:50;22.23;;;12.00;;
14817;SDS011;7500;57.698;11.986;2024-01-10T11:57:20;19.63;;;11.53;;
14817;SDS011;7500;57.698;11.986;2024-01-10T11:59:47;19.53;;;12.13;;
14817;SDS011;7500;57.698;11.986;2024-01-10T12:02:17;24.90;;;13.13;;
14817;SDS011;7500;57.698;11.986;2024-01-10T12:04:44;22.67;;;13.10;;
14817;SDS011;7500;57.698;11.986;2024-01-10T12:07:11;21.43;;;12.67;;
14817;SDS011;7500;57.698;11.986;2024-01-10T12:09:38;23.10;;;13.87;;
14817;SDS011;7500;57.698;11.986;2024-01-10T12:12:05;27.77;;;13.93;;
14817;SDS011;7500;57.698;11.986;2024-01-10T12:14:32;25.67;;;13.17;;
14817;SDS011;7500;57.698;11.986;2024-01-10T12:17:00;23.83;;;13.77;;
14817;SDS011;7500;57.698;11.986;2024-01-10T12:19:28;30.20;;;14.23;;
14817;SDS011;7500;57.698;11.986;2024-01-10T12:22:05;27.50;;;14.60;;
14817;SDS011;7500;57.698;11.986;2024-01-10T12:24:32;25.33;;;15.00;;
14817;SDS011;7500;57.698;11.986;2024-01-10T12:26:58;27.30;;;13.87;;
14817;SDS011;7500;57.698;11.986;2024-01-10T12:29:25;26.13;;;14.57;;
14817;SDS011;7500;57.698;11.986;2024-01-10T12:31:51;25.37;;;13.73;;
14817;SDS011;7500;57.698;11.986;2024-01-10T12:34:19;28.07;;;14.00;;
14817;SDS011;7500;57.698;11.986;2024-01-10T12:36:47;24.47;;;13.73;;
14817;SDS011;7500;57.698;11.986;2024-01-10T12:39:14;23.20;;;12.43;;
14817;SDS011;7500;57.698;11.986;2024-01-10T12:41:41;25.33;;;12.90;;
14817;SDS011;7500;57.698;11.986;2024-01-10T12:44:09;21.30;;;12.17;;
14817;SDS011;7500;57.698;11.986;2024-01-10T12:46:36;22.17;;;11.70;;
14817;SDS011;7500;57.698;11.986;2024-01-10T12:49:15;22.07;;;12.23;;
14817;SDS011;7500;57.698;11.986;2024-01-10T12:51:50;19.97;;;11.57;;
14817;SDS011;7500;57.698;11.986;2024-01-10T12:54:16;19.83;;;11.47;;
14817;SDS011;7500;57.698;11.986;2024-01-10T12:56:43;19.33;;;11.37;;
14817;SDS011;7500;57.698;11.986;2024-01-10T12:59:11;20.77;;;10.97;;
14817;SDS011;7500;57.698;11.986;2024-01-10T13:01:37;16.47;;;10.13;;
14817;SDS011;7500;57.698;11.986;2024-01-10T13:04:04;22.07;;;11.00;;
14817;SDS011;7500;57.698;11.986;2024-01-10T13:06:31;15.97;;;9.60;;
14817;SDS011;7500;57.698;11.986;2024-01-10T13:08:59;19.07;;;10.80;;
14817;SDS011;7500;57.698;11.986;2024-01-10T13:11:25;17.67;;;10.20;;
14817;SDS011;7500;57.698;11.986;2024-01-10T13:13:52;31.20;;;11.67;;
14817;SDS011;7500;57.698;11.986;2024-01-10T13:16:18;22.93;;;11.27;;
14817;SDS011;7500;57.698;11.986;2024-01-10T13:18:45;21.97;;;11.47;;
14817;SDS011;7500;57.698;11.986;2024-01-10T13:21:11;22.73;;;11.93;;
14817;SDS011;7500;57.698;11.986;2024-01-10T13:23:38;20.10;;;11.03;;
14817;SDS011;7500;57.698;11.986;2024-01-10T13:26:06;21.73;;;11.10;;
14817;SDS011;7500;57.698;11.986;2024-01-10T13:28:33;23.80;;;12.30;;
14817;SDS011;7500;57.698;11.986;2024-01-10T13:31:00;20.77;;;11.43;;
14817;SDS011;7500;57.698;11.986;2024-01-10T13:33:28;20.87;;;10.83;;
14817;SDS011;7500;57.698;11.986;2024-01-10T13:35:54;21.07;;;11.20;;
14817;SDS011;7500;57.698;11.986;2024-01-10T13:38:21;19.07;;;11.03;;
14817;SDS011;7500;57.698;11.986;2024-01-10T13:40:49;20.13;;;10.67;;
14817;SDS011;7500;57.698;11.986;2024-01-10T13:43:17;20.93;;;11.80;;
14817;SDS011;7500;57.698;11.986;2024-01-10T13:45:43;19.27;;;11.57;;
14817;SDS011;7500;57.698;11.986;2024-01-10T13:48:10;18.10;;;10.73;;
14817;SDS011;7500;57.698;11.986;2024-01-10T13:50:36;19.17;;;10.97;;
14817;SDS011;7500;57.698;11.986;2024-01-10T13:53:03;21.37;;;11.90;;
14817;SDS011;7500;57.698;11.986;2024-01-10T13:55:30;29.00;;;11.57;;
14817;SDS011;7500;57.698;11.986;2024-01-10T13:57:57;25.67;;;13.07;;
14817;SDS011;7500;57.698;11.986;2024-01-10T14:00:25;24.20;;;12.83;;
14817;SDS011;7500;57.698;11.986;2024-01-10T14:02:52;23.57;;;11.83;;
14817;SDS011;7500;57.698;11.986;2024-01-10T14:05:23;22.37;;;12.67;;
14817;SDS011;7500;57.698;11.986;2024-01-10T14:07:50;24.97;;;12.40;;
14817;SDS011;7500;57.698;11.986;2024-01-10T14:10:16;23.80;;;13.47;;
14817;SDS011;7500;57.698;11.986;2024-01-10T14:12:44;23.37;;;13.43;;
14817;SDS011;7500;57.698;11.986;2024-01-10T14:15:10;22.77;;;13.63;;
14817;SDS011;7500;57.698;11.986;2024-01-10T14:17:38;20.33;;;12.00;;
14817;SDS011;7500;57.698;11.986;2024-01-10T14:20:05;18.57;;;11.20;;
14817;SDS011;7500;57.698;11.986;2024-01-10T14:22:34;19.93;;;9.97;;
14817;SDS011;7500;57.698;11.986;2024-01-10T14:25:00;18.70;;;10.13;;
14817;SDS011;7500;57.698;11.986;2024-01-10T14:27:28;18.17;;;9.90;;
14817;SDS011;7500;57.698;11.986;2024-01-10T14:29:54;20.40;;;9.27;;
14817;SDS011;7500;57.698;11.986;2024-01-10T14:32:21;17.53;;;9.47;;